Terminal Aerodrome Forecast
Issued by NWS

Home | Current Version | Previous Version | Text Only | Print | Product List | Glossary On
Versions: 1 2 3 4 5 6 7 8 9 10 11 12 13 14 15 16 17
160
FTUS43 KDTX 032324
TAFMBS
TAF
KMBS 032324Z 0400/0424 22009KT P6SM SCT080 BKN150
     FM040700 21006KT P6SM -SHRA SCT022 BKN040 OVC060
     FM041100 36005KT 6SM -SHRA BR BKN022 OVC035
     FM041400 03012KT 4SM SHRA BR BKN012 OVC028
     FM041700 04015KT 3SM SHRA BR BKN008 OVC018=

USA.gov is the U.S. government's official web portal to all federal, state and local government web resources and services.